Aviation Digital Data Service (ADDS)

Output produced by TAFs form (2038 UTC 27 April 2017)
found at http://www.aviationweather.gov/adds/tafs/
 
KALB 271905Z 2719/2818 15007KT P6SM SCT015 SCT020 BKN250 
     FM280200 16009KT P6SM BKN015 
     TEMPO 2805/2809 5SM -SHRA OVC025 
     FM281100 21005KT P6SM BKN030 
     FM281500 27007KT P6SM SCT250